sensor_id;sensor_type;location;lat;lon;timestamp;temperature;humidity
72468;SHT30;60626;43.582;1.470;2022-08-05T00:02:04;30.33;50.39
72468;SHT30;60626;43.582;1.470;2022-08-05T00:04:36;30.32;50.32
72468;SHT30;60626;43.582;1.470;2022-08-05T00:07:05;30.32;50.14
72468;SHT30;60626;43.582;1.470;2022-08-05T00:09:52;30.28;50.35
72468;SHT30;60626;43.582;1.470;2022-08-05T00:12:20;30.25;50.33
72468;SHT30;60626;43.582;1.470;2022-08-05T00:14:47;30.21;50.53
72468;SHT30;60626;43.582;1.470;2022-08-05T00:17:17;30.18;50.65
72468;SHT30;60626;43.582;1.470;2022-08-05T00:19:45;30.18;50.68
72468;SHT30;60626;43.582;1.470;2022-08-05T00:22:28;30.21;50.65
72468;SHT30;60626;43.582;1.470;2022-08-05T00:24:56;30.19;50.81
72468;SHT30;60626;43.582;1.470;2022-08-05T00:27:23;30.18;50.70
72468;SHT30;60626;43.582;1.470;2022-08-05T00:30:03;30.21;50.65
72468;SHT30;60626;43.582;1.470;2022-08-05T00:32:36;30.22;50.87
72468;SHT30;60626;43.582;1.470;2022-08-05T00:35:06;30.19;50.82
72468;SHT30;60626;43.582;1.470;2022-08-05T00:37:33;30.22;50.83
72468;SHT30;60626;43.582;1.470;2022-08-05T00:40:20;30.24;50.80
72468;SHT30;60626;43.582;1.470;2022-08-05T00:43:00;30.24;50.92
72468;SHT30;60626;43.582;1.470;2022-08-05T00:45:28;30.24;50.79
72468;SHT30;60626;43.582;1.470;2022-08-05T00:48:07;30.22;50.59
72468;SHT30;60626;43.582;1.470;2022-08-05T00:50:36;30.19;50.71
72468;SHT30;60626;43.582;1.470;2022-08-05T00:53:03;30.12;50.67
72468;SHT30;60626;43.582;1.470;2022-08-05T00:55:49;30.10;50.99
72468;SHT30;60626;43.582;1.470;2022-08-05T00:58:16;30.02;50.98
72468;SHT30;60626;43.582;1.470;2022-08-05T01:00:45;30.00;51.08
72468;SHT30;60626;43.582;1.470;2022-08-05T01:03:15;30.01;51.13
72468;SHT30;60626;43.582;1.470;2022-08-05T01:05:49;29.98;51.02
72468;SHT30;60626;43.582;1.470;2022-08-05T01:08:17;29.97;50.73
72468;SHT30;60626;43.582;1.470;2022-08-05T01:11:21;29.87;51.00
72468;SHT30;60626;43.582;1.470;2022-08-05T01:14:09;29.74;51.10
72468;SHT30;60626;43.582;1.470;2022-08-05T01:16:56;29.64;51.42
72468;SHT30;60626;43.582;1.470;2022-08-05T01:19:43;29.59;51.35
72468;SHT30;60626;43.582;1.470;2022-08-05T01:31:11;29.26;52.14
72468;SHT30;60626;43.582;1.470;2022-08-05T01:34:14;29.26;52.14
72468;SHT30;60626;43.582;1.470;2022-08-05T01:36:46;29.26;51.67
72468;SHT30;60626;43.582;1.470;2022-08-05T01:39:16;29.19;51.02
72468;SHT30;60626;43.582;1.470;2022-08-05T01:42:05;29.14;50.98
72468;SHT30;60626;43.582;1.470;2022-08-05T01:44:36;29.07;50.60
72468;SHT30;60626;43.582;1.470;2022-08-05T01:47:03;29.00;50.10
72468;SHT30;60626;43.582;1.470;2022-08-05T01:49:32;28.90;49.95
72468;SHT30;60626;43.582;1.470;2022-08-05T01:52:21;28.87;50.09
72468;SHT30;60626;43.582;1.470;2022-08-05T01:54:54;28.73;50.03
72468;SHT30;60626;43.582;1.470;2022-08-05T01:57:30;28.68;50.33
72468;SHT30;60626;43.582;1.470;2022-08-05T02:00:18;28.71;50.33
72468;SHT30;60626;43.582;1.470;2022-08-05T02:02:51;28.68;50.54
72468;SHT30;60626;43.582;1.470;2022-08-05T02:05:24;28.67;50.94
72468;SHT30;60626;43.582;1.470;2022-08-05T02:07:54;28.61;50.93
72468;SHT30;60626;43.582;1.470;2022-08-05T02:10:31;28.57;50.95
72468;SHT30;60626;43.582;1.470;2022-08-05T02:13:19;28.57;50.97
72468;SHT30;60626;43.582;1.470;2022-08-05T02:16:04;28.54;51.55
72468;SHT30;60626;43.582;1.470;2022-08-05T02:18:41;28.52;52.08
72468;SHT30;60626;43.582;1.470;2022-08-05T02:21:11;28.53;52.12
72468;SHT30;60626;43.582;1.470;2022-08-05T02:23:43;28.52;52.20
72468;SHT30;60626;43.582;1.470;2022-08-05T02:26:12;28.52;52.09
72468;SHT30;60626;43.582;1.470;2022-08-05T02:28:43;28.49;51.95
72468;SHT30;60626;43.582;1.470;2022-08-05T02:31:15;28.52;51.67
72468;SHT30;60626;43.582;1.470;2022-08-05T02:33:51;28.44;51.75
72468;SHT30;60626;43.582;1.470;2022-08-05T02:36:25;28.33;51.63
72468;SHT30;60626;43.582;1.470;2022-08-05T02:38:57;28.27;52.02
72468;SHT30;60626;43.582;1.470;2022-08-05T02:41:26;28.27;52.02
72468;SHT30;60626;43.582;1.470;2022-08-05T02:44:14;28.27;51.70
72468;SHT30;60626;43.582;1.470;2022-08-05T02:46:44;28.20;51.90
72468;SHT30;60626;43.582;1.470;2022-08-05T02:49:27;28.18;52.23
72468;SHT30;60626;43.582;1.470;2022-08-05T02:52:04;28.15;51.96
72468;SHT30;60626;43.582;1.470;2022-08-05T02:54:33;28.10;52.52
72468;SHT30;60626;43.582;1.470;2022-08-05T02:57:07;28.10;52.38
72468;SHT30;60626;43.582;1.470;2022-08-05T02:59:55;28.09;52.61
72468;SHT30;60626;43.582;1.470;2022-08-05T03:02:31;28.16;52.70
72468;SHT30;60626;43.582;1.470;2022-08-05T03:05:00;28.18;52.71
72468;SHT30;60626;43.582;1.470;2022-08-05T03:07:28;28.16;52.72
72468;SHT30;60626;43.582;1.470;2022-08-05T03:10:15;28.16;52.57
72468;SHT30;60626;43.582;1.470;2022-08-05T03:12:50;28.09;53.16
72468;SHT30;60626;43.582;1.470;2022-08-05T03:15:19;28.05;53.21
72468;SHT30;60626;43.582;1.470;2022-08-05T03:17:49;28.04;53.08
72468;SHT30;60626;43.582;1.470;2022-08-05T03:20:19;28.02;53.56
72468;SHT30;60626;43.582;1.470;2022-08-05T03:22:46;27.99;52.89
72468;SHT30;60626;43.582;1.470;2022-08-05T03:25:18;28.02;53.50
72468;SHT30;60626;43.582;1.470;2022-08-05T03:28:07;28.05;53.16
72468;SHT30;60626;43.582;1.470;2022-08-05T03:30:34;28.01;53.56
72468;SHT30;60626;43.582;1.470;2022-08-05T03:33:06;28.04;53.18
72468;SHT30;60626;43.582;1.470;2022-08-05T03:35:34;27.95;53.25
72468;SHT30;60626;43.582;1.470;2022-08-05T03:38:10;27.85;54.39
72468;SHT30;60626;43.582;1.470;2022-08-05T03:40:44;27.81;53.81
72468;SHT30;60626;43.582;1.470;2022-08-05T03:43:15;27.67;54.33
72468;SHT30;60626;43.582;1.470;2022-08-05T03:46:03;27.67;54.86
72468;SHT30;60626;43.582;1.470;2022-08-05T03:48:30;27.68;54.68
72468;SHT30;60626;43.582;1.470;2022-08-05T03:51:11;27.71;54.75
72468;SHT30;60626;43.582;1.470;2022-08-05T03:54:22;27.77;54.69
72468;SHT30;60626;43.582;1.470;2022-08-05T03:57:12;27.71;53.95
72468;SHT30;60626;43.582;1.470;2022-08-05T03:59:48;27.68;54.39
72468;SHT30;60626;43.582;1.470;2022-08-05T04:02:24;27.64;54.95
72468;SHT30;60626;43.582;1.470;2022-08-05T04:05:11;27.67;54.77
72468;SHT30;60626;43.582;1.470;2022-08-05T04:07:39;27.67;54.38
72468;SHT30;60626;43.582;1.470;2022-08-05T04:10:25;27.62;54.97
72468;SHT30;60626;43.582;1.470;2022-08-05T04:12:54;27.61;54.74
72468;SHT30;60626;43.582;1.470;2022-08-05T04:15:25;27.51;54.63
72468;SHT30;60626;43.582;1.470;2022-08-05T04:18:01;27.42;55.04
72468;SHT30;60626;43.582;1.470;2022-08-05T04:20:32;27.39;55.47
72468;SHT30;60626;43.582;1.470;2022-08-05T04:22:59;27.40;55.46
72468;SHT30;60626;43.582;1.470;2022-08-05T04:25:26;27.42;54.84
72468;SHT30;60626;43.582;1.470;2022-08-05T04:28:13;27.39;55.37
72468;SHT30;60626;43.582;1.470;2022-08-05T04:30:40;27.40;55.67
72468;SHT30;60626;43.582;1.470;2022-08-05T04:33:08;27.40;55.58
72468;SHT30;60626;43.582;1.470;2022-08-05T04:35:35;27.44;55.47
72468;SHT30;60626;43.582;1.470;2022-08-05T04:38:22;27.47;55.45
72468;SHT30;60626;43.582;1.470;2022-08-05T04:41:06;27.53;55.49
72468;SHT30;60626;43.582;1.470;2022-08-05T04:43:35;27.51;54.72
72468;SHT30;60626;43.582;1.470;2022-08-05T04:46:02;27.51;55.38
72468;SHT30;60626;43.582;1.470;2022-08-05T04:48:30;27.49;55.33
72468;SHT30;60626;43.582;1.470;2022-08-05T04:50:57;27.44;55.32
72468;SHT30;60626;43.582;1.470;2022-08-05T04:53:29;27.49;55.37
72468;SHT30;60626;43.582;1.470;2022-08-05T04:56:01;27.53;55.42
72468;SHT30;60626;43.582;1.470;2022-08-05T04:58:47;27.53;55.36
72468;SHT30;60626;43.582;1.470;2022-08-05T05:01:14;27.53;54.82
72468;SHT30;60626;43.582;1.470;2022-08-05T05:04:01;27.50;54.87
72468;SHT30;60626;43.582;1.470;2022-08-05T05:06:30;27.51;54.92
72468;SHT30;60626;43.582;1.470;2022-08-05T05:09:10;27.51;55.25
72468;SHT30;60626;43.582;1.470;2022-08-05T05:11:43;27.64;55.18
72468;SHT30;60626;43.582;1.470;2022-08-05T05:14:22;27.81;54.91
72468;SHT30;60626;43.582;1.470;2022-08-05T05:16:59;27.89;54.54
72468;SHT30;60626;43.582;1.470;2022-08-05T05:19:26;27.92;54.59
72468;SHT30;60626;43.582;1.470;2022-08-05T05:22:11;27.91;54.33
72468;SHT30;60626;43.582;1.470;2022-08-05T05:24:51;27.85;54.31
72468;SHT30;60626;43.582;1.470;2022-08-05T05:27:26;27.84;54.71
72468;SHT30;60626;43.582;1.470;2022-08-05T05:30:14;27.80;54.66
72468;SHT30;60626;43.582;1.470;2022-08-05T05:32:57;27.84;54.40
72468;SHT30;60626;43.582;1.470;2022-08-05T05:35:29;27.82;54.31
72468;SHT30;60626;43.582;1.470;2022-08-05T05:38:03;27.81;54.21
72468;SHT30;60626;43.582;1.470;2022-08-05T05:40:31;27.74;54.69
72468;SHT30;60626;43.582;1.470;2022-08-05T05:42:59;27.82;54.22
72468;SHT30;60626;43.582;1.470;2022-08-05T05:45:27;27.87;54.55
72468;SHT30;60626;43.582;1.470;2022-08-05T05:47:57;27.94;54.52
72468;SHT30;60626;43.582;1.470;2022-08-05T05:50:33;27.98;54.22
72468;SHT30;60626;43.582;1.470;2022-08-05T05:53:10;27.98;54.00
72468;SHT30;60626;43.582;1.470;2022-08-05T05:55:51;27.92;54.42
72468;SHT30;60626;43.582;1.470;2022-08-05T05:58:27;27.95;54.40
72468;SHT30;60626;43.582;1.470;2022-08-05T06:00:58;28.01;54.17
72468;SHT30;60626;43.582;1.470;2022-08-05T06:03:39;27.95;54.22
72468;SHT30;60626;43.582;1.470;2022-08-05T06:06:26;27.94;54.44
72468;SHT30;60626;43.582;1.470;2022-08-05T06:08:57;27.99;54.20
72468;SHT30;60626;43.582;1.470;2022-08-05T06:11:24;28.02;54.30
72468;SHT30;60626;43.582;1.470;2022-08-05T06:13:54;28.09;54.28
72468;SHT30;60626;43.582;1.470;2022-08-05T06:16:22;28.09;54.18
72468;SHT30;60626;43.582;1.470;2022-08-05T06:18:58;28.12;54.17
72468;SHT30;60626;43.582;1.470;2022-08-05T06:21:27;28.15;54.18
72468;SHT30;60626;43.582;1.470;2022-08-05T06:24:06;28.19;54.11
72468;SHT30;60626;43.582;1.470;2022-08-05T06:26:39;28.22;53.97
72468;SHT30;60626;43.582;1.470;2022-08-05T06:29:20;28.23;54.00
72468;SHT30;60626;43.582;1.470;2022-08-05T06:32:08;28.26;53.92
72468;SHT30;60626;43.582;1.470;2022-08-05T06:34:51;28.31;53.86
72468;SHT30;60626;43.582;1.470;2022-08-05T06:37:21;28.36;53.79
72468;SHT30;60626;43.582;1.470;2022-08-05T06:40:08;28.40;53.52
72468;SHT30;60626;43.582;1.470;2022-08-05T06:42:35;28.42;53.48
72468;SHT30;60626;43.582;1.470;2022-08-05T06:45:07;28.35;53.63
72468;SHT30;60626;43.582;1.470;2022-08-05T06:47:35;28.32;53.65
72468;SHT30;60626;43.582;1.470;2022-08-05T06:50:22;28.32;53.58
72468;SHT30;60626;43.582;1.470;2022-08-05T06:52:50;28.33;53.73
72468;SHT30;60626;43.582;1.470;2022-08-05T06:55:29;28.32;53.73
72468;SHT30;60626;43.582;1.470;2022-08-05T06:58:02;28.29;53.36
72468;SHT30;60626;43.582;1.470;2022-08-05T07:00:50;28.13;53.47
72468;SHT30;60626;43.582;1.470;2022-08-05T07:03:17;28.02;54.18
72468;SHT30;60626;43.582;1.470;2022-08-05T07:05:44;27.98;53.92
72468;SHT30;60626;43.582;1.470;2022-08-05T07:08:12;27.94;54.02
72468;SHT30;60626;43.582;1.470;2022-08-05T07:10:40;27.88;54.39
72468;SHT30;60626;43.582;1.470;2022-08-05T07:13:20;27.92;54.40
72468;SHT30;60626;43.582;1.470;2022-08-05T07:16:25;27.94;54.21
72468;SHT30;60626;43.582;1.470;2022-08-05T07:19:31;27.85;54.79
72468;SHT30;60626;43.582;1.470;2022-08-05T07:22:17;27.85;54.22
72468;SHT30;60626;43.582;1.470;2022-08-05T07:24:58;27.89;54.78
72468;SHT30;60626;43.582;1.470;2022-08-05T07:27:46;27.95;54.76
72468;SHT30;60626;43.582;1.470;2022-08-05T07:30:26;27.98;54.54
72468;SHT30;60626;43.582;1.470;2022-08-05T07:32:59;27.99;54.49
72468;SHT30;60626;43.582;1.470;2022-08-05T07:35:30;27.98;54.46
72468;SHT30;60626;43.582;1.470;2022-08-05T07:38:17;28.01;54.54
72468;SHT30;60626;43.582;1.470;2022-08-05T07:41:08;28.05;54.47
72468;SHT30;60626;43.582;1.470;2022-08-05T07:43:56;28.05;54.31
72468;SHT30;60626;43.582;1.470;2022-08-05T07:46:27;28.04;54.17
72468;SHT30;60626;43.582;1.470;2022-08-05T07:48:57;28.05;54.02
72468;SHT30;60626;43.582;1.470;2022-08-05T07:51:33;28.02;54.26
72468;SHT30;60626;43.582;1.470;2022-08-05T07:54:06;27.97;54.18
72468;SHT30;60626;43.582;1.470;2022-08-05T07:56:36;27.92;54.51
72468;SHT30;60626;43.582;1.470;2022-08-05T07:59:22;27.94;54.63
72468;SHT30;60626;43.582;1.470;2022-08-05T08:02:09;28.01;54.28
72468;SHT30;60626;43.582;1.470;2022-08-05T08:04:43;27.92;54.26
72468;SHT30;60626;43.582;1.470;2022-08-05T08:07:11;27.82;54.47
72468;SHT30;60626;43.582;1.470;2022-08-05T08:09:38;27.74;55.02
72468;SHT30;60626;43.582;1.470;2022-08-05T08:12:05;27.78;54.82
72468;SHT30;60626;43.582;1.470;2022-08-05T08:14:52;27.87;54.80
72468;SHT30;60626;43.582;1.470;2022-08-05T08:17:19;27.89;54.98
72468;SHT30;60626;43.582;1.470;2022-08-05T08:19:47;27.97;54.58
72468;SHT30;60626;43.582;1.470;2022-08-05T08:22:33;28.04;54.29
72468;SHT30;60626;43.582;1.470;2022-08-05T08:25:00;28.02;54.22
72468;SHT30;60626;43.582;1.470;2022-08-05T08:27:31;27.97;54.47
72468;SHT30;60626;43.582;1.470;2022-08-05T08:30:11;28.01;54.48
72468;SHT30;60626;43.582;1.470;2022-08-05T08:32:53;28.06;54.31
72468;SHT30;60626;43.582;1.470;2022-08-05T08:35:19;28.16;54.23
72468;SHT30;60626;43.582;1.470;2022-08-05T08:37:51;28.19;54.09
72468;SHT30;60626;43.582;1.470;2022-08-05T08:40:21;28.29;53.81
72468;SHT30;60626;43.582;1.470;2022-08-05T08:42:50;28.33;53.49
72468;SHT30;60626;43.582;1.470;2022-08-05T08:45:21;28.36;53.44
72468;SHT30;60626;43.582;1.470;2022-08-05T08:47:55;28.39;53.46
72468;SHT30;60626;43.582;1.470;2022-08-05T08:50:43;28.43;53.32
72468;SHT30;60626;43.582;1.470;2022-08-05T08:53:35;28.37;53.30
72468;SHT30;60626;43.582;1.470;2022-08-05T08:56:09;28.29;53.45
72468;SHT30;60626;43.582;1.470;2022-08-05T08:58:36;28.32;53.39
72468;SHT30;60626;43.582;1.470;2022-08-05T09:01:13;28.33;53.73
72468;SHT30;60626;43.582;1.470;2022-08-05T09:03:48;28.37;53.61
72468;SHT30;60626;43.582;1.470;2022-08-05T09:06:21;28.40;53.48
72468;SHT30;60626;43.582;1.470;2022-08-05T09:08:57;28.43;53.54
72468;SHT30;60626;43.582;1.470;2022-08-05T09:11:24;28.44;53.37
72468;SHT30;60626;43.582;1.470;2022-08-05T09:14:11;28.42;53.69
72468;SHT30;60626;43.582;1.470;2022-08-05T09:16:59;28.43;53.68
72468;SHT30;60626;43.582;1.470;2022-08-05T09:19:26;28.43;53.38
72468;SHT30;60626;43.582;1.470;2022-08-05T09:22:13;28.46;53.37
72468;SHT30;60626;43.582;1.470;2022-08-05T09:25:02;28.46;53.66
72468;SHT30;60626;43.582;1.470;2022-08-05T09:27:48;28.53;53.81
72468;SHT30;60626;43.582;1.470;2022-08-05T09:30:33;28.65;53.54
72468;SHT30;60626;43.582;1.470;2022-08-05T09:33:01;28.90;53.35
72468;SHT30;60626;43.582;1.470;2022-08-05T09:35:30;29.16;53.07
72468;SHT30;60626;43.582;1.470;2022-08-05T09:37:58;29.43;52.73
72468;SHT30;60626;43.582;1.470;2022-08-05T09:40:43;29.70;52.01
72468;SHT30;60626;43.582;1.470;2022-08-05T09:43:27;29.91;51.58
72468;SHT30;60626;43.582;1.470;2022-08-05T09:46:31;30.10;51.16
72468;SHT30;60626;43.582;1.470;2022-08-05T09:49:01;30.24;50.55
72468;SHT30;60626;43.582;1.470;2022-08-05T09:51:45;30.40;50.53
72468;SHT30;60626;43.582;1.470;2022-08-05T09:54:16;30.56;50.39
72468;SHT30;60626;43.582;1.470;2022-08-05T09:56:55;30.76;49.98
72468;SHT30;60626;43.582;1.470;2022-08-05T09:59:23;30.83;49.63
72468;SHT30;60626;43.582;1.470;2022-08-05T10:01:53;30.82;49.87
72468;SHT30;60626;43.582;1.470;2022-08-05T10:04:34;30.87;49.48
72468;SHT30;60626;43.582;1.470;2022-08-05T10:07:04;30.87;49.45
72468;SHT30;60626;43.582;1.470;2022-08-05T10:09:54;30.94;49.22
72468;SHT30;60626;43.582;1.470;2022-08-05T10:12:49;31.11;49.32
72468;SHT30;60626;43.582;1.470;2022-08-05T10:18:08;31.22;48.59
72468;SHT30;60626;43.582;1.470;2022-08-05T10:20:47;31.34;48.51
72468;SHT30;60626;43.582;1.470;2022-08-05T10:26:14;31.50;48.08
72468;SHT30;60626;43.582;1.470;2022-08-05T10:28:43;31.42;47.71
72468;SHT30;60626;43.582;1.470;2022-08-05T10:31:13;31.41;47.94
72468;SHT30;60626;43.582;1.470;2022-08-05T10:34:00;31.34;47.56
72468;SHT30;60626;43.582;1.470;2022-08-05T10:36:28;31.35;47.53
72468;SHT30;60626;43.582;1.470;2022-08-05T10:39:06;31.34;47.32
72468;SHT30;60626;43.582;1.470;2022-08-05T10:44:37;31.15;47.67
72468;SHT30;60626;43.582;1.470;2022-08-05T10:47:12;31.15;47.43
72468;SHT30;60626;43.582;1.470;2022-08-05T10:50:06;31.10;47.05
72468;SHT30;60626;43.582;1.470;2022-08-05T10:52:58;31.00;47.34
72468;SHT30;60626;43.582;1.470;2022-08-05T10:55:26;30.91;47.32
72468;SHT30;60626;43.582;1.470;2022-08-05T10:58:06;30.91;47.29
72468;SHT30;60626;43.582;1.470;2022-08-05T11:00:34;30.97;47.48
72468;SHT30;60626;43.582;1.470;2022-08-05T11:03:09;31.06;46.98
72468;SHT30;60626;43.582;1.470;2022-08-05T11:06:10;31.25;47.07
72468;SHT30;60626;43.582;1.470;2022-08-05T11:09:20;31.22;46.68
72468;SHT30;60626;43.582;1.470;2022-08-05T11:15:09;31.24;46.85
72468;SHT30;60626;43.582;1.470;2022-08-05T11:17:49;31.27;46.36
72468;SHT30;60626;43.582;1.470;2022-08-05T11:28:59;31.62;45.55
72468;SHT30;60626;43.582;1.470;2022-08-05T11:31:42;31.69;45.47
72468;SHT30;60626;43.582;1.470;2022-08-05T11:34:41;31.76;45.54
72468;SHT30;60626;43.582;1.470;2022-08-05T11:40:55;31.92;44.99
72468;SHT30;60626;43.582;1.470;2022-08-05T11:43:29;31.96;45.39
72468;SHT30;60626;43.582;1.470;2022-08-05T11:46:16;31.98;45.16
72468;SHT30;60626;43.582;1.470;2022-08-05T11:48:59;32.03;44.17
72468;SHT30;60626;43.582;1.470;2022-08-05T11:51:30;32.02;44.53
72468;SHT30;60626;43.582;1.470;2022-08-05T11:54:23;32.06;44.61
72468;SHT30;60626;43.582;1.470;2022-08-05T11:57:01;32.13;44.61
72468;SHT30;60626;43.582;1.470;2022-08-05T11:59:48;32.17;44.98
72468;SHT30;60626;43.582;1.470;2022-08-05T12:02:16;32.17;44.43
72468;SHT30;60626;43.582;1.470;2022-08-05T12:05:00;32.23;43.93
72468;SHT30;60626;43.582;1.470;2022-08-05T12:07:43;32.23;44.03
72468;SHT30;60626;43.582;1.470;2022-08-05T12:10:30;32.16;43.75
72468;SHT30;60626;43.582;1.470;2022-08-05T12:13:13;32.19;43.56
72468;SHT30;60626;43.582;1.470;2022-08-05T12:15:46;32.19;43.79
72468;SHT30;60626;43.582;1.470;2022-08-05T12:18:18;32.19;43.57
72468;SHT30;60626;43.582;1.470;2022-08-05T12:20:49;32.12;43.09
72468;SHT30;60626;43.582;1.470;2022-08-05T12:23:16;32.06;43.23
72468;SHT30;60626;43.582;1.470;2022-08-05T12:25:53;32.02;43.30
72468;SHT30;60626;43.582;1.470;2022-08-05T12:28:48;31.97;43.62
72468;SHT30;60626;43.582;1.470;2022-08-05T12:31:15;31.96;43.67
72468;SHT30;60626;43.582;1.470;2022-08-05T12:34:05;31.96;43.65
72468;SHT30;60626;43.582;1.470;2022-08-05T12:36:34;31.98;43.64
72468;SHT30;60626;43.582;1.470;2022-08-05T12:39:03;32.02;43.68
72468;SHT30;60626;43.582;1.470;2022-08-05T12:41:33;32.06;44.01
72468;SHT30;60626;43.582;1.470;2022-08-05T12:44:10;32.10;43.98
72468;SHT30;60626;43.582;1.470;2022-08-05T12:46:52;32.10;43.54
72468;SHT30;60626;43.582;1.470;2022-08-05T12:49:19;32.14;43.86
72468;SHT30;60626;43.582;1.470;2022-08-05T12:51:57;32.17;43.57
72468;SHT30;60626;43.582;1.470;2022-08-05T12:54:46;32.21;43.00
72468;SHT30;60626;43.582;1.470;2022-08-05T12:57:18;32.20;43.30
72468;SHT30;60626;43.582;1.470;2022-08-05T12:59:53;32.19;43.10
72468;SHT30;60626;43.582;1.470;2022-08-05T13:02:40;32.12;42.88
72468;SHT30;60626;43.582;1.470;2022-08-05T13:05:07;32.10;42.95
72468;SHT30;60626;43.582;1.470;2022-08-05T13:07:40;32.12;43.67
72468;SHT30;60626;43.582;1.470;2022-08-05T13:10:26;32.10;43.44
72468;SHT30;60626;43.582;1.470;2022-08-05T13:12:55;32.12;42.90
72468;SHT30;60626;43.582;1.470;2022-08-05T13:15:32;32.12;43.20
72468;SHT30;60626;43.582;1.470;2022-08-05T13:18:07;32.12;43.15
72468;SHT30;60626;43.582;1.470;2022-08-05T13:20:35;32.12;42.99
72468;SHT30;60626;43.582;1.470;2022-08-05T13:23:06;32.20;43.26
72468;SHT30;60626;43.582;1.470;2022-08-05T13:25:33;32.19;43.21
72468;SHT30;60626;43.582;1.470;2022-08-05T13:28:20;32.23;43.16
72468;SHT30;60626;43.582;1.470;2022-08-05T13:30:47;32.27;43.34
72468;SHT30;60626;43.582;1.470;2022-08-05T13:33:19;32.31;43.29
72468;SHT30;60626;43.582;1.470;2022-08-05T13:36:06;32.32;43.13
72468;SHT30;60626;43.582;1.470;2022-08-05T13:38:35;32.34;42.77
72468;SHT30;60626;43.582;1.470;2022-08-05T13:41:08;32.37;42.92
72468;SHT30;60626;43.582;1.470;2022-08-05T13:43:34;32.41;43.06
72468;SHT30;60626;43.582;1.470;2022-08-05T13:46:23;32.47;42.96
72468;SHT30;60626;43.582;1.470;2022-08-05T13:49:10;32.52;42.75
72468;SHT30;60626;43.582;1.470;2022-08-05T13:51:39;32.55;42.71
72468;SHT30;60626;43.582;1.470;2022-08-05T13:54:13;32.57;42.01
72468;SHT30;60626;43.582;1.470;2022-08-05T13:56:42;32.55;42.13
72468;SHT30;60626;43.582;1.470;2022-08-05T13:59:15;32.55;42.28
72468;SHT30;60626;43.582;1.470;2022-08-05T14:01:46;32.58;42.34
72468;SHT30;60626;43.582;1.470;2022-08-05T14:04:35;32.58;42.51
72468;SHT30;60626;43.582;1.470;2022-08-05T14:07:22;32.58;42.00
72468;SHT30;60626;43.582;1.470;2022-08-05T14:10:14;32.57;42.29
72468;SHT30;60626;43.582;1.470;2022-08-05T14:12:53;32.61;42.12
72468;SHT30;60626;43.582;1.470;2022-08-05T14:15:20;32.62;42.23
72468;SHT30;60626;43.582;1.470;2022-08-05T14:18:07;32.61;42.43
72468;SHT30;60626;43.582;1.470;2022-08-05T14:20:43;32.64;42.37
72468;SHT30;60626;43.582;1.470;2022-08-05T14:23:14;32.69;42.07
72468;SHT30;60626;43.582;1.470;2022-08-05T14:25:54;32.75;42.35
72468;SHT30;60626;43.582;1.470;2022-08-05T14:28:27;32.79;42.25
72468;SHT30;60626;43.582;1.470;2022-08-05T14:30:58;32.79;41.67
72468;SHT30;60626;43.582;1.470;2022-08-05T14:33:27;32.80;41.69
72468;SHT30;60626;43.582;1.470;2022-08-05T14:36:13;32.78;41.83
72468;SHT30;60626;43.582;1.470;2022-08-05T14:38:40;32.79;41.80
72468;SHT30;60626;43.582;1.470;2022-08-05T14:41:07;32.85;41.94
72468;SHT30;60626;43.582;1.470;2022-08-05T14:43:35;32.86;42.00
72468;SHT30;60626;43.582;1.470;2022-08-05T14:46:23;32.92;42.15
72468;SHT30;60626;43.582;1.470;2022-08-05T14:48:55;32.96;42.14
72468;SHT30;60626;43.582;1.470;2022-08-05T14:51:22;32.96;41.90
72468;SHT30;60626;43.582;1.470;2022-08-05T14:53:51;32.94;41.58
72468;SHT30;60626;43.582;1.470;2022-08-05T14:56:38;32.95;41.73
72468;SHT30;60626;43.582;1.470;2022-08-05T14:59:11;32.98;41.97
72468;SHT30;60626;43.582;1.470;2022-08-05T15:01:38;33.00;41.81
72468;SHT30;60626;43.582;1.470;2022-08-05T15:04:15;33.00;41.61
72468;SHT30;60626;43.582;1.470;2022-08-05T15:06:42;33.03;40.97
72468;SHT30;60626;43.582;1.470;2022-08-05T15:09:18;33.07;41.20
72468;SHT30;60626;43.582;1.470;2022-08-05T15:12:05;33.07;41.16
72468;SHT30;60626;43.582;1.470;2022-08-05T15:14:35;33.07;40.89
72468;SHT30;60626;43.582;1.470;2022-08-05T15:17:16;33.07;40.53
72468;SHT30;60626;43.582;1.470;2022-08-05T15:20:04;33.07;41.12
72468;SHT30;60626;43.582;1.470;2022-08-05T15:22:31;33.06;40.92
72468;SHT30;60626;43.582;1.470;2022-08-05T15:24:58;33.09;40.64
72468;SHT30;60626;43.582;1.470;2022-08-05T15:27:39;33.07;40.79
72468;SHT30;60626;43.582;1.470;2022-08-05T15:30:18;33.14;40.80
72468;SHT30;60626;43.582;1.470;2022-08-05T15:32:45;33.16;41.20
72468;SHT30;60626;43.582;1.470;2022-08-05T15:35:11;33.17;40.78
72468;SHT30;60626;43.582;1.470;2022-08-05T15:37:40;33.14;41.09
72468;SHT30;60626;43.582;1.470;2022-08-05T15:40:26;33.13;40.70
72468;SHT30;60626;43.582;1.470;2022-08-05T15:43:13;33.16;40.78
72468;SHT30;60626;43.582;1.470;2022-08-05T15:45:46;33.16;40.68
72468;SHT30;60626;43.582;1.470;2022-08-05T15:48:25;33.17;41.25
72468;SHT30;60626;43.582;1.470;2022-08-05T15:50:51;33.16;40.52
72468;SHT30;60626;43.582;1.470;2022-08-05T15:53:21;33.16;40.89
72468;SHT30;60626;43.582;1.470;2022-08-05T15:55:51;33.16;41.02
72468;SHT30;60626;43.582;1.470;2022-08-05T15:58:30;33.17;40.47
72468;SHT30;60626;43.582;1.470;2022-08-05T16:01:03;33.19;40.89
72468;SHT30;60626;43.582;1.470;2022-08-05T16:03:44;33.22;40.24
72468;SHT30;60626;43.582;1.470;2022-08-05T16:06:17;33.23;40.24
72468;SHT30;60626;43.582;1.470;2022-08-05T16:08:45;33.19;40.16
72468;SHT30;60626;43.582;1.470;2022-08-05T16:11:12;33.19;40.26
72468;SHT30;60626;43.582;1.470;2022-08-05T16:13:40;33.19;40.51
72468;SHT30;60626;43.582;1.470;2022-08-05T16:16:07;33.14;40.57
72468;SHT30;60626;43.582;1.470;2022-08-05T16:18:36;33.13;40.40
72468;SHT30;60626;43.582;1.470;2022-08-05T16:21:17;33.13;40.32
72468;SHT30;60626;43.582;1.470;2022-08-05T16:23:46;33.14;40.21
72468;SHT30;60626;43.582;1.470;2022-08-05T16:26:20;33.16;40.33
72468;SHT30;60626;43.582;1.470;2022-08-05T16:28:52;33.12;40.61
72468;SHT30;60626;43.582;1.470;2022-08-05T16:31:20;33.10;40.50
72468;SHT30;60626;43.582;1.470;2022-08-05T16:33:48;33.06;40.33
72468;SHT30;60626;43.582;1.470;2022-08-05T16:36:14;33.07;40.69
72468;SHT30;60626;43.582;1.470;2022-08-05T16:38:49;33.09;40.66
72468;SHT30;60626;43.582;1.470;2022-08-05T16:41:20;33.07;40.60
72468;SHT30;60626;43.582;1.470;2022-08-05T16:44:08;33.05;40.49
72468;SHT30;60626;43.582;1.470;2022-08-05T16:46:37;33.06;40.78
72468;SHT30;60626;43.582;1.470;2022-08-05T16:49:07;33.02;40.99
72468;SHT30;60626;43.582;1.470;2022-08-05T16:51:35;33.02;40.91
72468;SHT30;60626;43.582;1.470;2022-08-05T16:54:16;33.00;41.06
72468;SHT30;60626;43.582;1.470;2022-08-05T16:56:56;33.00;41.07
72468;SHT30;60626;43.582;1.470;2022-08-05T16:59:23;33.00;41.20